Time;durP1;ratioP1;P1;durP2;ratioP2;P2;SDS_P1;SDS_P2;PMS_P1;PMS_P2;Temp;Humidity;BMP_temperature;BMP_pressure;BME280_temperature;BME280_humidity;BME280_pressure;Samples;Min_cycle;Max_cycle;Signal;HPM_P1;HPM_P2
2022/10/25 00:00:56;;;;;;;;;;;;;;;;;;5085700;28;19915;-53
2022/10/25 00:03:23;;;;;;;;;;;;;;;;;;5085443;28;19908;-51
2022/10/25 00:05:49;;;;;;;;;;;;;;;;;;5085756;28;19947;-48
2022/10/25 00:08:16;;;;;;;;;;;;;;;;;;5085374;28;19939;-49
2022/10/25 00:10:43;;;;;;;;;;;;;;;;;;5083854;28;19977;-53
2022/10/25 00:13:09;;;;;;;;;;;;;;;;;;5085438;28;19904;-52
2022/10/25 00:15:35;;;;;;;;;;;;;;;;;;5085440;28;19931;-53
2022/10/25 00:18:02;;;;;;;;;;;;;;;;;;5086336;28;19995;-49
2022/10/25 00:20:27;;;;;;;;;;;;;;;;;;5085229;28;19904;-48
2022/10/25 00:22:53;;;;;;;;;;;;;;;;;;5085517;28;20415;-51
2022/10/25 00:25:20;;;;;;;;;;;;;;;;;;5084294;28;20383;-48
2022/10/25 00:27:46;;;;;;;;;;;;;;;;;;5085239;28;19947;-50
2022/10/25 00:30:12;;;;;;;;;;;;;;;;;;5085171;28;20581;-51
2022/10/25 00:32:38;;;;;;;;;;;;;;;;;;5084896;28;19904;-49
2022/10/25 00:35:04;;;;;;;;;;;;;;;;;;5085690;28;19994;-49
2022/10/25 00:37:30;;;;;;;;;;;;;;;;;;5085646;28;20357;-52
2022/10/25 00:39:57;;;;;;;;;;;;;;;;;;5084331;28;19907;-51
2022/10/25 00:42:22;;;;;;;;;;;;;;;;;;5076972;28;19973;-50
2022/10/25 00:44:49;;;;;;;;;;;;;;;;;;5065282;28;20363;-52
2022/10/25 00:47:15;;;;;;;;;;;;;;;;;;5064510;28;19927;-50
2022/10/25 00:49:42;;;;;;;;;;;;;;;;;;5065194;28;19908;-50
2022/10/25 00:52:08;;;;;;;;;;;;;;;;;;5064700;28;19911;-52
2022/10/25 00:54:33;;;;;;;;;;;;;;;;;;5065331;28;19904;-51
2022/10/25 00:56:59;;;;;;;;;;;;;;;;;;5070399;28;20339;-50
2022/10/25 00:59:25;;;;;;;;;;;;;;;;;;5084955;28;19915;-51
2022/10/25 01:01:52;;;;;;;;;;;;;;;;;;5084874;28;20333;-49
2022/10/25 01:04:19;;;;;;;;;;;;;;;;;;5084824;28;20290;-51
2022/10/25 01:06:45;;;;;;;;;;;;;;;;;;5085191;28;19904;-52
2022/10/25 01:09:12;;;;;;;;;;;;;;;;;;5085030;28;20337;-50
2022/10/25 01:11:38;;;;;;;;;;;;;;;;;;5067218;28;19921;-49
2022/10/25 01:14:03;;;;;;;;;;;;;;;;;;5065044;28;19908;-53
2022/10/25 01:16:29;;;;;;;;;;;;;;;;;;5064865;28;20600;-50
2022/10/25 01:18:55;;;;;;;;;;;;;;;;;;5064382;28;19912;-52
2022/10/25 01:21:22;;;;;;;;;;;;;;;;;;5064550;28;20360;-52
2022/10/25 01:23:49;;;;;;;;;;;;;;;;;;5064669;28;20002;-50
2022/10/25 01:26:15;;;;;;;;;;;;;;;;;;5064215;28;19927;-51
2022/10/25 01:28:41;;;;;;;;;;;;;;;;;;5064598;28;20402;-52
2022/10/25 01:31:08;;;;;;;;;;;;;;;;;;5064499;28;19999;-51
2022/10/25 01:33:34;;;;;;;;;;;;;;;;;;5064460;28;20434;-48
2022/10/25 01:36:01;;;;;;;;;;;;;;;;;;5065589;28;19996;-51
2022/10/25 01:38:27;;;;;;;;;;;;;;;;;;5064657;28;19946;-50
2022/10/25 01:40:52;;;;;;;;;;;;;;;;;;5064319;28;20007;-51
2022/10/25 01:43:18;;;;;;;;;;;;;;;;;;5064640;28;19969;-50
2022/10/25 01:45:44;;;;;;;;;;;;;;;;;;5064657;28;19912;-50
2022/10/25 01:48:10;;;;;;;;;;;;;;;;;;5064670;28;19908;-50
2022/10/25 01:50:36;;;;;;;;;;;;;;;;;;5064279;28;19969;-51
2022/10/25 01:53:02;;;;;;;;;;;;;;;;;;5066214;28;19935;-51
2022/10/25 01:55:28;;;;;;;;;;;;;;;;;;5067718;28;19915;-53
2022/10/25 01:57:54;;;;;;;;;;;;;;;;;;5067850;28;19912;-50
2022/10/25 02:00:20;;;;;;;;;;;;;;;;;;5067686;28;19908;-49
2022/10/25 02:02:46;;;;;;;;;;;;;;;;;;5067589;28;19905;-51
2022/10/25 02:05:12;;;;;;;;;;;;;;;;;;5067980;28;19909;-51
2022/10/25 02:07:38;;;;;;;;;;;;;;;;;;5070215;28;20312;-51
2022/10/25 02:10:04;;;;;;;;;;;;;;;;;;5087692;28;19911;-49
2022/10/25 02:12:30;;;;;;;;;;;;;;;;;;5070048;28;19917;-52
2022/10/25 02:14:57;;;;;;;;;;;;;;;;;;5067710;28;19905;-53
2022/10/25 02:17:24;;;;;;;;;;;;;;;;;;5067029;28;19962;-53
2022/10/25 02:19:50;;;;;;;;;;;;;;;;;;5065811;28;20372;-50
2022/10/25 02:22:15;;;;;;;;;;;;;;;;;;5067239;28;19955;-49
2022/10/25 02:24:41;;;;;;;;;;;;;;;;;;5067522;28;20098;-53
2022/10/25 02:27:07;;;;;;;;;;;;;;;;;;5087706;28;20417;-48
2022/10/25 02:29:33;;;;;;;;;;;;;;;;;;5087837;28;20442;-53
2022/10/25 02:31:59;;;;;;;;;;;;;;;;;;5087835;28;19904;-50
2022/10/25 02:34:26;;;;;;;;;;;;;;;;;;5087093;28;19930;-52
2022/10/25 02:36:52;;;;;;;;;;;;;;;;;;5087236;28;19904;-50
2022/10/25 02:39:19;;;;;;;;;;;;;;;;;;5085810;28;20352;-52
2022/10/25 02:41:45;;;;;;;;;;;;;;;;;;5086523;28;19908;-48
2022/10/25 02:44:11;;;;;;;;;;;;;;;;;;5087429;28;19926;-50
2022/10/25 02:46:36;;;;;;;;;;;;;;;;;;5086603;28;19919;-51
2022/10/25 02:49:03;;;;;;;;;;;;;;;;;;5087724;28;20538;-53
2022/10/25 02:51:29;;;;;;;;;;;;;;;;;;5087298;28;19904;-48
2022/10/25 02:53:55;;;;;;;;;;;;;;;;;;5075053;28;19953;-49
2022/10/25 02:56:21;;;;;;;;;;;;;;;;;;5066627;28;19904;-53
2022/10/25 02:58:47;;;;;;;;;;;;;;;;;;5066798;28;19904;-48
2022/10/25 03:01:13;;;;;;;;;;;;;;;;;;5066412;28;19908;-51
2022/10/25 03:03:39;;;;;;;;;;;;;;;;;;5066393;28;19952;-51
2022/10/25 03:06:05;;;;;;;;;;;;;;;;;;5066692;28;19905;-51
2022/10/25 03:08:30;;;;;;;;;;;;;;;;;;5075436;28;19915;-51
2022/10/25 03:10:56;;;;;;;;;;;;;;;;;;5086726;28;20310;-49
2022/10/25 03:13:22;;;;;;;;;;;;;;;;;;5086839;28;19907;-51
2022/10/25 03:15:48;;;;;;;;;;;;;;;;;;5085394;28;20319;-52
2022/10/25 03:18:14;;;;;;;;;;;;;;;;;;5086379;28;19939;-51
2022/10/25 03:20:40;;;;;;;;;;;;;;;;;;5086426;28;19904;-49
2022/10/25 03:23:06;;;;;;;;;;;;;;;;;;5085400;28;19923;-50
2022/10/25 03:25:33;;;;;;;;;;;;;;;;;;5087171;28;19911;-48
2022/10/25 03:28:01;;;;;;;;;;;;;;;;;;5085072;28;19922;-49
2022/10/25 03:30:27;;;;;;;;;;;;;;;;;;5086109;28;19911;-51
2022/10/25 03:32:53;;;;;;;;;;;;;;;;;;5086379;28;20402;-51
2022/10/25 03:35:19;;;;;;;;;;;;;;;;;;5085176;28;20418;-50
2022/10/25 03:37:45;;;;;;;;;;;;;;;;;;5086334;28;19904;-50
2022/10/25 03:40:12;;;;;;;;;;;;;;;;;;5086083;28;19934;-51
2022/10/25 03:42:39;;;;;;;;;;;;;;;;;;5086290;28;19908;-52
2022/10/25 03:45:05;;;;;;;;;;;;;;;;;;5086048;28;19954;-50
2022/10/25 03:47:31;;;;;;;;;;;;;;;;;;5086829;28;19943;-51
2022/10/25 03:49:57;;;;;;;;;;;;;;;;;;5084186;28;19921;-50
2022/10/25 03:52:23;;;;;;;;;;;;;;;;;;5085775;28;20854;-53
2022/10/25 03:54:49;;;;;;;;;;;;;;;;;;5086036;28;20302;-50
2022/10/25 03:57:15;;;;;;;;;;;;;;;;;;5085637;28;20487;-49
2022/10/25 03:59:43;;;;;;;;;;;;;;;;;;5085885;28;19908;-51
2022/10/25 04:02:10;;;;;;;;;;;;;;;;;;5085565;28;19908;-50
2022/10/25 04:04:36;;;;;;;;;;;;;;;;;;5083848;28;19912;-52
2022/10/25 04:07:01;;;;;;;;;;;;;;;;;;5086106;28;19904;-49
2022/10/25 04:09:27;;;;;;;;;;;;;;;;;;5085460;28;19918;-52
2022/10/25 04:11:53;;;;;;;;;;;;;;;;;;5085955;28;19908;-52
2022/10/25 04:14:20;;;;;;;;;;;;;;;;;;5085419;28;20257;-52
2022/10/25 04:16:46;;;;;;;;;;;;;;;;;;5085094;28;20116;-52
2022/10/25 04:19:12;;;;;;;;;;;;;;;;;;5084413;28;19908;-49
2022/10/25 04:21:38;;;;;;;2.75;1.70;;;;;;;;;;5084711;28;20396;-53
2022/10/25 04:24:04;;;;;;;2.15;1.92;;;;;;;;;;5085284;28;20040;-50
2022/10/25 04:26:30;;;;;;;1.73;1.60;;;;;;;;;;5065084;28;20511;-50
2022/10/25 04:28:56;;;;;;;2.33;1.77;;;;;;;;;;5064607;28;20074;-48
2022/10/25 04:31:23;;;;;;;3.40;2.00;;;;;;;;;;5064232;28;20024;-53
2022/10/25 04:33:53;;;;;;;2.28;1.60;;;;;;;;;;5064684;28;20522;-52
2022/10/25 04:36:19;;;;;;;2.53;1.77;;;;;;;;;;5064588;28;20412;-49
2022/10/25 04:38:52;;;;;;;2.28;2.00;;;;;;;;;;5064882;28;20090;-49
2022/10/25 04:41:18;;;;;;;3.90;1.85;;;;;;;;;;5083011;28;20054;-51
2022/10/25 04:43:44;;;;;;;2.33;1.70;;;;;;;;;;5085010;28;20028;-50
2022/10/25 04:46:10;;;;;;;2.35;1.70;;;;;;;;;;5084414;28;20031;-50
2022/10/25 04:48:38;;;;;;;2.20;1.50;;;;;;;;;;5084739;28;20022;-51
2022/10/25 04:51:04;;;;;;;1.85;1.50;;;;;;;;;;5084589;28;20024;-50
2022/10/25 04:53:30;;;;;;;2.75;1.40;;;;;;;;;;5085118;28;20032;-51
2022/10/25 04:55:57;;;;;;;1.85;1.40;;;;;;;;;;5084106;28;20081;-48
2022/10/25 04:58:23;;;;;;;3.05;1.60;;;;;;;;;;5075835;28;20035;-48
2022/10/25 05:00:51;;;;;;;2.72;1.45;;;;;;;;;;5077190;28;20080;-50
2022/10/25 05:03:17;;;;;;;7.30;1.42;;;;;;;;;;5075976;28;20050;-49
2022/10/25 05:05:43;;;;;;;2.47;1.58;;;;;;;;;;5065984;28;20476;-50
2022/10/25 05:08:09;;;;;;;1.60;1.30;;;;;;;;;;5065680;28;20107;-52
2022/10/25 05:10:35;;;;;;;2.25;1.13;;;;;;;;;;5066224;28;20403;-50
2022/10/25 05:13:01;;;;;;;2.30;1.77;;;;;;;;;;5071353;28;20096;-48
2022/10/25 05:15:27;;;;;;;1.70;1.13;;;;;;;;;;5068168;28;20039;-52
2022/10/25 05:17:57;;;;;;;2.10;1.27;;;;;;;;;;5077330;28;20503;-52
2022/10/25 05:20:23;;;;;;;2.20;1.50;;;;;;;;;;5086051;28;20055;-51
2022/10/25 05:22:49;;;;;;;1.15;1.00;;;;;;;;;;5085828;28;20028;-51
2022/10/25 05:25:15;;;;;;;2.25;1.00;;;;;;;;;;5085528;28;20020;-51
2022/10/25 05:27:41;;;;;;;2.60;1.27;;;;;;;;;;5083877;28;20434;-51
2022/10/25 05:30:08;;;;;;;3.83;2.15;;;;;;;;;;5086317;28;20035;-50
2022/10/25 05:32:34;;;;;;;2.65;1.20;;;;;;;;;;5088574;28;20043;-51
2022/10/25 05:35:00;;;;;;;2.50;1.20;;;;;;;;;;5070012;28;20028;-51
2022/10/25 05:37:26;;;;;;;3.22;1.17;;;;;;;;;;5069131;28;20468;-51
2022/10/25 05:39:52;;;;;;;1.60;1.30;;;;;;;;;;5088205;28;20036;-52
2022/10/25 05:42:18;;;;;;;2.67;1.23;;;;;;;;;;5084695;28;20432;-49
2022/10/25 05:44:44;;;;;;;1.63;1.13;;;;;;;;;;5070409;28;20020;-51
2022/10/25 05:47:11;;;;;;;1.08;0.85;;;;;;;;;;5089340;28;20024;-51
2022/10/25 05:49:39;;;;;;;1.40;1.10;;;;;;;;;;5078626;28;20118;-50
2022/10/25 05:52:06;;;;;;;2.75;1.23;;;;;;;;;;5069201;28;20017;-49
2022/10/25 05:54:32;;;;;;;3.03;1.40;;;;;;;;;;5070296;28;20063;-52
2022/10/25 05:56:58;;;;;;;1.70;1.20;;;;;;;;;;5086894;28;20421;-52
2022/10/25 05:59:24;;;;;;;2.05;1.27;;;;;;;;;;5087767;28;20338;-50
2022/10/25 06:01:50;;;;;;;1.95;1.20;;;;;;;;;;5084962;28;20040;-50
2022/10/25 06:04:17;;;;;;;1.35;1.10;;;;;;;;;;5079361;28;20472;-51
2022/10/25 06:06:44;;;;;;;1.80;1.40;;;;;;;;;;5068077;28;20036;-50
2022/10/25 06:09:10;;;;;;;1.23;1.13;;;;;;;;;;5074113;28;20395;-52
2022/10/25 06:11:37;;;;;;;2.70;1.38;;;;;;;;;;5088237;28;20051;-49
2022/10/25 06:14:03;;;;;;;1.40;1.10;;;;;;;;;;5073645;28;20043;-51
2022/10/25 06:16:30;;;;;;;1.63;1.52;;;;;;;;;;5070099;28;20032;-50
2022/10/25 06:18:56;;;;;;;1.85;1.25;;;;;;;;;;5077582;28;20044;-48
2022/10/25 06:21:23;;;;;;;1.70;1.33;;;;;;;;;;5089439;28;20097;-50
2022/10/25 06:23:49;;;;;;;2.35;1.52;;;;;;;;;;5089795;28;20020;-48
2022/10/25 06:26:17;;;;;;;1.83;1.42;;;;;;;;;;5084461;28;20103;-47
2022/10/25 06:28:43;;;;;;;2.17;1.38;;;;;;;;;;5069136;28;20033;-49
2022/10/25 06:31:09;;;;;;;1.98;1.67;;;;;;;;;;5081306;28;20111;-52
2022/10/25 06:33:36;;;;;;;2.13;1.70;;;;;;;;;;5089646;28;20032;-53
2022/10/25 06:36:03;;;;;;;3.20;1.88;;;;;;;;;;5090019;28;20064;-51
2022/10/25 06:38:29;;;;;;;3.08;1.85;;;;;;;;;;5081061;28;20020;-51
2022/10/25 06:41:01;;;;;;;2.08;1.85;;;;;;;;;;5089248;28;20043;-50
2022/10/25 06:43:28;;;;;;;1.88;1.60;;;;;;;;;;5071976;28;20078;-49
2022/10/25 06:45:54;;;;;;;2.72;1.95;;;;;;;;;;5079171;28;20659;-51
2022/10/25 06:48:20;;;;;;;2.75;2.10;;;;;;;;;;5098692;28;20635;-51
2022/10/25 06:50:46;;;;;;;5.72;2.40;;;;;;;;;;5094136;28;20036;-51
2022/10/25 06:53:12;;;;;;;3.65;2.10;;;;;;;;;;5105515;28;20474;-49
2022/10/25 06:55:38;;;;;;;4.22;2.40;;;;;;;;;;5069937;28;20028;-48
2022/10/25 06:58:04;;;;;;;2.70;2.10;;;;;;;;;;5077232;28;20031;-50
2022/10/25 07:00:30;;;;;;;3.05;2.42;;;;;;;;;;5088048;28;20388;-50
2022/10/25 07:02:57;;;;;;;3.40;2.60;;;;;;;;;;5088730;28;21791;-48
2022/10/25 07:05:23;;;;;;;4.13;2.63;;;;;;;;;;5085794;28;20032;-47
2022/10/25 07:07:50;;;;;;;3.55;2.92;;;;;;;;;;5078621;28;20034;-50
2022/10/25 07:10:16;;;;;;;3.22;2.50;;;;;;;;;;5087213;28;20060;-51
2022/10/25 07:12:42;;;;;;;5.32;2.90;;;;;;;;;;5088451;28;20099;-51
2022/10/25 07:15:08;;;;;;;;;;;;;;;;;;5074296;28;20085;-49
2022/10/25 07:17:34;;;;;;;;;;;;;;;;;;5089478;28;20457;-48
2022/10/25 07:20:00;;;;;;;;;;;;;;;;;;5089549;28;19919;-49
2022/10/25 07:22:26;;;;;;;;;;;;;;;;;;5088073;28;19934;-50
2022/10/25 07:24:51;;;;;;;;;;;;;;;;;;5067911;28;19912;-49
2022/10/25 07:27:17;;;;;;;;;;;;;;;;;;5058180;28;19920;-51
2022/10/25 07:29:44;;;;;;;;;;;;;;;;;;5058166;28;20023;-52
2022/10/25 07:32:10;;;;;;;;;;;;;;;;;;5059399;28;19916;-49
2022/10/25 07:34:36;;;;;;;;;;;;;;;;;;5058584;28;19962;-52
2022/10/25 07:37:02;;;;;;;;;;;;;;;;;;5064353;28;20056;-50
2022/10/25 07:39:28;;;;;;;;;;;;;;;;;;5072698;28;19912;-52
2022/10/25 07:41:54;;;;;;;;;;;;;;;;;;5070188;28;19908;-52
2022/10/25 07:44:21;;;;;;;;;;;;;;;;;;5074185;28;19916;-52
2022/10/25 07:46:49;;;;;;;;;;;;;;;;;;5077334;28;19908;-52
2022/10/25 07:49:14;;;;;;;;;;;;;;;;;;5066915;28;19916;-52
2022/10/25 07:51:40;;;;;;;;;;;;;;;;;;5074726;28;19915;-51
2022/10/25 07:54:06;;;;;;;;;;;;;;;;;;5085635;28;19904;-51
2022/10/25 07:56:32;;;;;;;;;;;;;;;;;;5080338;28;20002;-49
2022/10/25 07:58:58;;;;;;;;;;;;;;;;;;5077347;28;20398;-52
2022/10/25 08:01:24;;;;;;;;;;;;;;;;;;5066776;28;19915;-50
2022/10/25 08:03:50;;;;;;;;;;;;;;;;;;5067283;28;19912;-51
2022/10/25 08:06:17;;;;;;;;;;;;;;;;;;5065333;28;19914;-52
2022/10/25 08:08:44;;;;;;;;;;;;;;;;;;5065558;28;20280;-49
2022/10/25 08:11:10;;;;;;;;;;;;;;;;;;5065420;28;20359;-49
2022/10/25 08:13:37;;;;;;;;;;;;;;;;;;5065652;28;19908;-51
2022/10/25 08:16:02;;;;;;;;;;;;;;;;;;5066046;28;19954;-50
2022/10/25 08:18:28;;;;;;;;;;;;;;;;;;5065473;28;19908;-48
2022/10/25 08:20:54;;;;;;;1.33;1.00;;;;;;;;;;5063129;28;20420;-51
2022/10/25 08:23:22;;;;;;;1.25;0.88;;;;;;;;;;5064540;28;20124;-50
2022/10/25 08:25:49;;;;;;;1.38;0.80;;;;;;;;;;5064937;28;20047;-48
2022/10/25 08:28:16;;;;;;;0.90;0.80;;;;;;;;;;5064145;28;20123;-50
2022/10/25 08:30:43;;;;;;;0.90;0.90;;;;;;;;;;5064584;28;20027;-50
2022/10/25 08:33:09;;;;;;;1.08;0.80;;;;;;;;;;5064809;28;20091;-50
2022/10/25 08:35:35;;;;;;;0.65;0.65;;;;;;;;;;5064826;28;20360;-51
2022/10/25 08:38:01;;;;;;;1.13;0.73;;;;;;;;;;5065255;28;20021;-52
2022/10/25 08:40:28;;;;;;;;;;;;;;;;;;5064939;28;20039;-51
2022/10/25 08:42:54;;;;;;;;;;;;;;;;;;5064798;28;20358;-51
2022/10/25 08:45:20;;;;;;;;;;;;;;;;;;5064751;28;20014;-49
2022/10/25 08:47:46;;;;;;;;;;;;;;;;;;5065194;28;19908;-50
2022/10/25 08:50:13;;;;;;;;;;;;;;;;;;5065070;28;20112;-50
2022/10/25 08:52:39;;;;;;;;;;;;;;;;;;5064779;28;19987;-49
2022/10/25 08:55:05;;;;;;;;;;;;;;;;;;5065044;28;20007;-51
2022/10/25 08:57:31;;;;;;;;;;;;;;;;;;5065195;28;20441;-50
2022/10/25 08:59:57;;;;;;;;;;;;;;;;;;5065024;28;19905;-50
2022/10/25 09:02:22;;;;;;;;;;;;;;;;;;5066667;28;20303;-49
2022/10/25 09:04:49;;;;;;;;;;;;;;;;;;5068919;28;19990;-48
2022/10/25 09:07:15;;;;;;;;;;;;;;;;;;5068696;28;20544;-53
2022/10/25 09:09:41;;;;;;;;;;;;;;;;;;5070566;28;20018;-51
2022/10/25 09:12:07;;;;;;;;;;;;;;;;;;5071862;28;19908;-50
2022/10/25 09:14:33;;;;;;;;;;;;;;;;;;5079706;28;20062;-50
2022/10/25 09:16:59;;;;;;;;;;;;;;;;;;5087629;28;19971;-53
2022/10/25 09:19:25;;;;;;;;;;;;;;;;;;5081163;28;19995;-52
2022/10/25 09:21:52;;;;;;;;;;;;;;;;;;5082561;28;19934;-51
2022/10/25 09:24:18;;;;;;;;;;;;;;;;;;5087924;28;19908;-52
2022/10/25 09:26:43;;;;;;;;;;;;;;;;;;5098655;28;19907;-52
2022/10/25 09:29:15;;;;;;;1.17;1.00;;;;;;;;;;5109043;28;20812;-51
2022/10/25 09:31:41;;;;;;;;;;;;;;;;;;5089923;28;21464;-51
2022/10/25 09:34:07;;;;;;;;;;;;;;;;;;5080076;28;19995;-50
2022/10/25 09:36:33;;;;;;;;;;;;;;;;;;5085161;28;19998;-51
2022/10/25 09:38:59;;;;;;;;;;;;;;;;;;5069758;28;19910;-50
2022/10/25 09:41:25;;;;;;;;;;;;;;;;;;5068966;28;19912;-52
2022/10/25 09:43:51;;;;;;;;;;;;;;;;;;5069514;28;20291;-52
2022/10/25 09:46:17;;;;;;;;;;;;;;;;;;5069351;28;20058;-50
2022/10/25 09:48:45;;;;;;;;;;;;;;;;;;5072442;28;19908;-52
2022/10/25 09:51:12;;;;;;;;;;;;;;;;;;5082039;28;19936;-51
2022/10/25 09:53:39;;;;;;;;;;;;;;;;;;5081459;28;19909;-49
2022/10/25 09:56:05;;;;;;;;;;;;;;;;;;5081343;28;19916;-50
2022/10/25 09:58:31;;;;;;;;;;;;;;;;;;5085900;28;19915;-52
2022/10/25 10:00:58;;;;;;;;;;;;;;;;;;5068977;28;19987;-49
2022/10/25 10:03:24;;;;;;;;;;;;;;;;;;5082751;28;19916;-51
2022/10/25 10:05:50;;;;;;;;;;;;;;;;;;5069057;28;19918;-52
2022/10/25 10:08:16;;;;;;;;;;;;;;;;;;5068676;28;20384;-53
2022/10/25 10:10:42;;;;;;;;;;;;;;;;;;5088406;28;19998;-50
2022/10/25 10:13:08;;;;;;;;;;;;;;;;;;5087950;28;19999;-52
2022/10/25 10:15:37;;;;;;;;;;;;;;;;;;5089416;28;20324;-50
2022/10/25 10:18:03;;;;;;;;;;;;;;;;;;5071336;28;19922;-48
2022/10/25 10:20:30;;;;;;;;;;;;;;;;;;5085127;28;20032;-51
2022/10/25 10:22:56;;;;;;;;;;;;;;;;;;5068806;28;20218;-50
2022/10/25 10:25:22;;;;;;;;;;;;;;;;;;5080684;28;20053;-49
2022/10/25 10:27:47;;;;;;;;;;;;;;;;;;5088405;28;19912;-50
2022/10/25 10:30:13;;;;;;;;;;;;;;;;;;5081359;28;19908;-52
2022/10/25 10:32:40;;;;;;;;;;;;;;;;;;5073420;28;19909;-49
2022/10/25 10:35:07;;;;;;;;;;;;;;;;;;5081131;28;19919;-49
2022/10/25 10:37:34;;;;;;;;;;;;;;;;;;5085381;28;20540;-52
2022/10/25 10:40:01;;;;;;;;;;;;;;;;;;5087089;28;19919;-50
2022/10/25 10:42:28;;;;;;;;;;;;;;;;;;5083265;28;20006;-50
2022/10/25 10:44:55;;;;;;;;;;;;;;;;;;5088302;28;20806;-51
2022/10/25 10:47:21;;;;;;;;;;;;;;;;;;5079024;28;19912;-52
2022/10/25 10:49:46;;;;;;;;;;;;;;;;;;5067391;28;20419;-50
2022/10/25 10:52:12;;;;;;;;;;;;;;;;;;5077596;28;19912;-49
2022/10/25 10:54:38;;;;;;;;;;;;;;;;;;5086727;28;19915;-49
2022/10/25 10:57:04;;;;;;;;;;;;;;;;;;5084863;28;19908;-50
2022/10/25 10:59:30;;;;;;;;;;;;;;;;;;5087536;28;19998;-49
2022/10/25 11:01:56;;;;;;;;;;;;;;;;;;5086832;28;20374;-48
2022/10/25 11:04:22;;;;;;;;;;;;;;;;;;5087168;28;20393;-49
2022/10/25 11:06:48;;;;;;;;;;;;;;;;;;5086786;28;19969;-50
2022/10/25 11:09:18;;;;;;;;;;;;;;;;;;5086539;28;19908;-52
2022/10/25 11:11:44;;;;;;;;;;;;;;;;;;5086759;28;20353;-50
2022/10/25 11:14:10;;;;;;;;;;;;;;;;;;5086387;28;20384;-52
2022/10/25 11:16:36;;;;;;;;;;;;;;;;;;5086964;28;20341;-50
2022/10/25 11:19:02;;;;;;;;;;;;;;;;;;5087148;28;20111;-51
2022/10/25 11:21:28;;;;;;;;;;;;;;;;;;5086290;28;19961;-50
2022/10/25 11:23:55;;;;;;;;;;;;;;;;;;5086522;28;19908;-49
2022/10/25 11:26:20;;;;;;;;;;;;;;;;;;5086120;28;19926;-49
2022/10/25 11:28:46;;;;;;;;;;;;;;;;;;5086315;28;20450;-50
2022/10/25 11:31:13;;;;;;;;;;;;;;;;;;5086147;28;19919;-50
2022/10/25 11:33:39;;;;;;;;;;;;;;;;;;5086276;28;19911;-48
2022/10/25 11:36:05;;;;;;;;;;;;;;;;;;5086265;28;20497;-50
2022/10/25 11:38:31;;;;;;;;;;;;;;;;;;5086707;28;19912;-49
2022/10/25 11:40:57;;;;;;;;;;;;;;;;;;5085852;28;20379;-53
2022/10/25 11:43:23;;;;;;;;;;;;;;;;;;5086114;28;19908;-50
2022/10/25 11:45:48;;;;;;;;;;;;;;;;;;5065731;28;20376;-48
2022/10/25 11:48:15;;;;;;;;;;;;;;;;;;5065468;28;19965;-52
2022/10/25 11:50:41;;;;;;;;;;;;;;;;;;5066710;28;19912;-52
2022/10/25 11:53:07;;;;;;;;;;;;;;;;;;5066689;28;19912;-51
2022/10/25 11:55:33;;;;;;;;;;;;;;;;;;5090526;28;19914;-50
2022/10/25 11:57:59;;;;;;;;;;;;;;;;;;5107768;28;20002;-52
2022/10/25 12:00:25;;;;;;;;;;;;;;;;;;5084484;28;20036;-53
2022/10/25 12:02:51;;;;;;;;;;;;;;;;;;5087012;28;19904;-52
2022/10/25 12:05:17;;;;;;;;;;;;;;;;;;5083429;28;19917;-51
2022/10/25 12:07:43;;;;;;;;;;;;;;;;;;5065731;28;19942;-53
2022/10/25 12:10:09;;;;;;;;;;;;;;;;;;5080972;28;19912;-50
2022/10/25 12:12:35;;;;;;;;;;;;;;;;;;5096140;28;19908;-52
2022/10/25 12:15:01;;;;;;;;;;;;;;;;;;5089305;28;20005;-53
2022/10/25 12:17:27;;;;;;;;;;;;;;;;;;5073219;28;19980;-53
2022/10/25 12:19:53;;;;;;;;;;;;;;;;;;5065289;28;19905;-52
2022/10/25 12:22:19;;;;;;;;;;;;;;;;;;5067795;28;19915;-53
2022/10/25 12:24:45;;;;;;;;;;;;;;;;;;5072443;28;19923;-51
2022/10/25 12:27:11;;;;;;;;;;;;;;;;;;5070710;28;19934;-52
2022/10/25 12:29:37;;;;;;;;;;;;;;;;;;5078443;28;20723;-52
2022/10/25 12:32:03;;;;;;;;;;;;;;;;;;5066487;28;19935;-50
2022/10/25 12:34:29;;;;;;;;;;;;;;;;;;5063808;28;19915;-51
2022/10/25 12:36:55;;;;;;;;;;;;;;;;;;5064302;28;19921;-52
2022/10/25 12:39:21;;;;;;;;;;;;;;;;;;5071995;28;20326;-52
2022/10/25 12:41:47;;;;;;;;;;;;;;;;;;5069508;28;19916;-52
2022/10/25 12:44:13;;;;;;;;;;;;;;;;;;5075723;28;19940;-51
2022/10/25 12:46:40;;;;;;;;;;;;;;;;;;5064663;28;20280;-52
2022/10/25 12:49:06;;;;;;;;;;;;;;;;;;5069103;28;20295;-52
2022/10/25 12:51:32;;;;;;;;;;;;;;;;;;5071517;28;19914;-49
2022/10/25 12:53:57;;;;;;;;;;;;;;;;;;5085927;28;20006;-53
2022/10/25 12:56:23;;;;;;;;;;;;;;;;;;5064620;28;19916;-53
2022/10/25 12:58:49;;;;;;;;;;;;;;;;;;5079453;28;20287;-52
2022/10/25 13:01:16;;;;;;;;;;;;;;;;;;5083841;28;20391;-53
2022/10/25 13:03:43;;;;;;;;;;;;;;;;;;5085226;28;19908;-52
2022/10/25 13:06:10;;;;;;;;;;;;;;;;;;5084913;28;19954;-49
2022/10/25 13:08:36;;;;;;;;;;;;;;;;;;5085145;28;20318;-51
2022/10/25 13:11:02;;;;;;;;;;;;;;;;;;5085410;28;19919;-51
2022/10/25 13:13:29;;;;;;;;;;;;;;;;;;5085334;28;19907;-53
2022/10/25 13:15:55;;;;;;;;;;;;;;;;;;5084818;28;19908;-52
2022/10/25 13:18:21;;;;;;;;;;;;;;;;;;5084480;28;20429;-51
2022/10/25 13:20:47;;;;;;;;;;;;;;;;;;5084908;28;19916;-51
2022/10/25 13:23:14;;;;;;;;;;;;;;;;;;5084501;28;19908;-49
2022/10/25 13:25:40;;;;;;;;;;;;;;;;;;5084864;28;19930;-53
2022/10/25 13:28:06;;;;;;;;;;;;;;;;;;5084788;28;19915;-50
2022/10/25 13:30:32;;;;;;;;;;;;;;;;;;5085293;28;20387;-52
2022/10/25 13:32:58;;;;;;;;;;;;;;;;;;5084668;28;19908;-50
2022/10/25 13:35:23;;;;;;;;;;;;;;;;;;5084939;28;20339;-53
2022/10/25 13:37:49;;;;;;;;;;;;;;;;;;5084686;28;19965;-49
2022/10/25 13:40:15;;;;;;;;;;;;;;;;;;5084581;28;19958;-53
2022/10/25 13:42:41;;;;;;;;;;;;;;;;;;5084559;28;19964;-50
2022/10/25 13:45:08;;;;;;;;;;;;;;;;;;5084513;28;19904;-49
2022/10/25 13:47:34;;;;;;;;;;;;;;;;;;5084926;28;19900;-54
2022/10/25 13:50:00;;;;;;;;;;;;;;;;;;5088466;28;19912;-49
2022/10/25 13:52:26;;;;;;;;;;;;;;;;;;5088430;28;20453;-52
2022/10/25 13:54:52;;;;;;;;;;;;;;;;;;5088137;28;20291;-51
2022/10/25 13:57:18;;;;;;;;;;;;;;;;;;5088062;28;19908;-51
2022/10/25 13:59:44;;;;;;;;;;;;;;;;;;5088046;28;19947;-52
2022/10/25 14:02:10;;;;;;;;;;;;;;;;;;5087779;28;19915;-49
2022/10/25 14:04:36;;;;;;;;;;;;;;;;;;5088409;28;19907;-52
2022/10/25 14:07:02;;;;;;;;;;;;;;;;;;5088751;28;20374;-52
2022/10/25 14:09:28;;;;;;;;;;;;;;;;;;5087642;28;19912;-50
2022/10/25 14:11:54;;;;;;;;;;;;;;;;;;5087790;28;20418;-52
2022/10/25 14:14:20;;;;;;;;;;;;;;;;;;5087881;28;19911;-50
2022/10/25 14:16:46;;;;;;;;;;;;;;;;;;5087879;28;20524;-48
2022/10/25 14:19:12;;;;;;;;;;;;;;;;;;5087601;28;19904;-50
2022/10/25 14:21:39;;;;;;;;;;;;;;;;;;5087534;28;20007;-49
2022/10/25 14:24:05;;;;;;;;;;;;;;;;;;5087708;28;20393;-51
2022/10/25 14:26:31;;;;;;;;;;;;;;;;;;5088084;28;19986;-51
2022/10/25 14:28:57;;;;;;;;;;;;;;;;;;5087269;28;19916;-52
2022/10/25 14:31:23;;;;;;;;;;;;;;;;;;5087166;28;20409;-52
2022/10/25 14:33:50;;;;;;;;;;;;;;;;;;5087532;28;19907;-50
2022/10/25 14:36:16;;;;;;;;;;;;;;;;;;5087704;28;19999;-50
2022/10/25 14:38:42;;;;;;;;;;;;;;;;;;5087258;28;20004;-52
2022/10/25 14:41:07;;;;;;;;;;;;;;;;;;5086931;28;19910;-51
2022/10/25 14:43:33;;;;;;;;;;;;;;;;;;5080061;28;19912;-51
2022/10/25 14:45:59;;;;;;;;;;;;;;;;;;5067669;28;20431;-50
2022/10/25 14:48:25;;;;;;;;;;;;;;;;;;5066984;28;19905;-50
2022/10/25 14:50:51;;;;;;;;;;;;;;;;;;5068116;28;19963;-52
2022/10/25 14:53:17;;;;;;;;;;;;;;;;;;5067960;28;19957;-50
2022/10/25 14:55:43;;;;;;;;;;;;;;;;;;5068402;28;20325;-52
2022/10/25 14:58:09;;;;;;;;;;;;;;;;;;5068108;28;19962;-52
2022/10/25 15:00:35;;;;;;;;;;;;;;;;;;5067964;28;19912;-50
2022/10/25 15:03:01;;;;;;;;;;;;;;;;;;5068091;28;19973;-52
2022/10/25 15:05:27;;;;;;;;;;;;;;;;;;5066945;28;19914;-54
2022/10/25 15:07:54;;;;;;;;;;;;;;;;;;5066357;28;19905;-52
2022/10/25 15:10:20;;;;;;;;;;;;;;;;;;5066306;28;19941;-49
2022/10/25 15:12:46;;;;;;;;;;;;;;;;;;5084809;28;19912;-52
2022/10/25 15:15:12;;;;;;;;;;;;;;;;;;5087100;28;19907;-51
2022/10/25 15:17:38;;;;;;;;;;;;;;;;;;5087971;28;19912;-52
2022/10/25 15:20:04;;;;;;;;;;;;;;;;;;5084551;28;19912;-52
2022/10/25 15:22:30;;;;;;;;;;;;;;;;;;5089105;28;19943;-51
2022/10/25 15:24:56;;;;;;;;;;;;;;;;;;5086255;28;20430;-51
2022/10/25 15:27:22;;;;;;;;;;;;;;;;;;5087061;28;19947;-50
2022/10/25 15:29:48;;;;;;;;;;;;;;;;;;5070798;28;19942;-51
2022/10/25 15:32:14;;;;;;;;;;;;;;;;;;5066725;28;19974;-51
2022/10/25 15:34:40;;;;;;;;;;;;;;;;;;5084140;28;19987;-51
2022/10/25 15:37:06;;;;;;;;;;;;;;;;;;5087568;28;20007;-52
2022/10/25 15:39:32;;;;;;;;;;;;;;;;;;5086901;28;19904;-51
2022/10/25 15:41:58;;;;;;;;;;;;;;;;;;5079225;28;20444;-52
2022/10/25 15:44:24;;;;;;;;;;;;;;;;;;5067288;28;19912;-50
2022/10/25 15:46:50;;;;;;;;;;;;;;;;;;5067498;28;19908;-51
2022/10/25 15:49:16;;;;;;;;;;;;;;;;;;5066801;28;20117;-50
2022/10/25 15:51:42;;;;;;;;;;;;;;;;;;5081347;28;19911;-52
2022/10/25 15:54:08;;;;;;;;;;;;;;;;;;5085242;28;20007;-50
2022/10/25 15:56:34;;;;;;;;;;;;;;;;;;5086457;28;19966;-49
2022/10/25 15:59:01;;;;;;;;;;;;;;;;;;5087686;28;19943;-52
2022/10/25 16:01:28;;;;;;;;;;;;;;;;;;5070781;28;20038;-52
2022/10/25 16:03:54;;;;;;;;;;;;;;;;;;5073493;28;20479;-50
2022/10/25 16:06:19;;;;;;;;;;;;;;;;;;5086866;28;20129;-53
2022/10/25 16:08:45;;;;;;;;;;;;;;;;;;5086909;28;19911;-53
2022/10/25 16:11:11;;;;;;;;;;;;;;;;;;5085864;28;20003;-50